createdAt,value
2018-01-31T01:54:04.074Z,9.07
2018-01-31T01:57:14.182Z,10.18
2018-01-31T02:00:24.914Z,9.55
2018-01-31T02:03:35.619Z,10.15
2018-01-31T02:06:45.517Z,10.43
2018-01-31T02:09:55.264Z,9.25
2018-01-31T02:13:05.123Z,10.27
2018-01-31T02:16:14.997Z,11.43
2018-01-31T02:19:24.737Z,8.90
2018-01-31T02:22:35.516Z,10.63
2018-01-31T02:25:46.820Z,9.50
2018-01-31T02:28:56.844Z,8.10
2018-01-31T02:32:06.749Z,9.18
2018-01-31T02:35:16.586Z,8.85
2018-01-31T02:38:37.541Z,8.70
2018-01-31T02:41:47.823Z,11.85
2018-01-31T02:44:57.695Z,10.20
2018-01-31T02:48:08.227Z,15.15
2018-01-31T02:51:19.078Z,9.63
2018-01-31T02:54:29.116Z,9.55
2018-01-31T02:57:38.974Z,8.02
2018-01-31T03:00:48.653Z,6.78
2018-01-31T03:03:59.096Z,8.55
2018-01-31T03:07:09.010Z,8.73
2018-01-31T03:10:19.622Z,8.98
2018-01-31T03:13:30.924Z,8.68
2018-01-31T03:16:40.285Z,7.95
2018-01-31T03:19:50.387Z,8.70
2018-01-31T03:23:00.058Z,8.50
2018-01-31T03:26:10.741Z,8.02
2018-01-31T03:29:20.399Z,13.52
2018-01-31T03:32:31.257Z,8.70
2018-01-31T03:35:40.960Z,8.60
2018-01-31T03:38:50.954Z,9.23
2018-01-31T03:42:01.930Z,9.70
2018-01-31T03:45:11.772Z,8.57
2018-01-31T03:48:22.570Z,7.37
2018-01-31T03:51:32.400Z,9.73
2018-01-31T03:54:42.435Z,11.20
2018-01-31T03:57:52.131Z,7.97
2018-01-31T04:01:02.762Z,7.32
2018-01-31T04:04:13.324Z,10.50
2018-01-31T04:07:23.394Z,11.50
2018-01-31T04:10:33.782Z,8.05
2018-01-31T04:13:44.340Z,9.85
2018-01-31T04:16:54.586Z,11.45
2018-01-31T04:20:04.417Z,9.48
2018-01-31T04:23:14.246Z,11.45
2018-01-31T04:26:24.065Z,8.40
2018-01-31T04:29:34.197Z,9.98
2018-01-31T04:32:45.020Z,8.38
2018-01-31T04:35:54.984Z,11.18
2018-01-31T04:39:04.013Z,10.77
2018-01-31T04:42:14.390Z,11.02
2018-01-31T04:45:24.632Z,10.70
2018-01-31T04:48:34.647Z,10.88
2018-01-31T04:51:44.494Z,10.30
2018-01-31T04:54:54.512Z,11.07
2018-01-31T04:58:04.406Z,9.30
2018-01-31T05:01:14.738Z,9.70
2018-01-31T05:04:24.658Z,9.45
2018-01-31T05:07:35.122Z,10.10
2018-01-31T05:10:44.926Z,8.75
2018-01-31T05:13:55.410Z,9.90
2018-01-31T05:17:05.445Z,11.60
2018-01-31T05:20:15.283Z,14.55
2018-01-31T05:23:25.102Z,11.05
2018-01-31T05:26:34.833Z,13.48
2018-01-31T05:29:45.395Z,11.25
2018-01-31T05:32:55.451Z,10.82
2018-01-31T05:36:05.135Z,11.35
2018-01-31T05:39:15.888Z,10.27
2018-01-31T05:42:25.639Z,11.10
2018-01-31T05:45:35.511Z,13.43
2018-01-31T05:48:45.396Z,11.63
2018-01-31T05:51:55.322Z,13.90
2018-01-31T05:55:05.282Z,11.55
2018-01-31T05:58:15.175Z,11.55
2018-01-31T06:01:25.524Z,8.85
2018-01-31T06:04:36.887Z,14.55
2018-01-31T06:07:46.764Z,13.70
2018-01-31T06:10:56.682Z,10.10
2018-01-31T06:14:06.791Z,10.05
2018-01-31T06:17:17.149Z,11.27
2018-01-31T06:20:27.104Z,11.05
2018-01-31T06:23:36.866Z,9.43
2018-01-31T06:26:47.400Z,9.38
2018-01-31T06:29:57.137Z,8.85
2018-01-31T06:33:06.900Z,10.07
2018-01-31T06:36:17.703Z,8.82
2018-01-31T06:39:27.978Z,8.52
2018-01-31T06:42:38.653Z,11.82
2018-01-31T06:45:48.364Z,9.43
2018-01-31T06:48:58.231Z,9.70
2018-01-31T06:52:08.132Z,9.82
2018-01-31T06:55:17.832Z,9.50
2018-01-31T06:58:28.387Z,10.23
2018-01-31T07:01:38.502Z,9.10
2018-01-31T07:04:48.187Z,12.07
2018-01-31T07:07:58.044Z,12.98
2018-01-31T07:11:08.035Z,10.63
2018-01-31T07:14:18.006Z,9.70
2018-01-31T07:17:27.997Z,9.95
2018-01-31T07:20:38.078Z,9.60
2018-01-31T07:23:48.681Z,10.82
2018-01-31T07:26:58.632Z,12.15
2018-01-31T07:30:08.893Z,11.02
2018-01-31T07:33:19.366Z,9.90
2018-01-31T07:36:29.575Z,8.73
2018-01-31T07:39:40.264Z,10.00
2018-01-31T07:42:50.749Z,8.90
2018-01-31T07:46:00.802Z,10.60
2018-01-31T07:49:10.597Z,10.27
2018-01-31T07:52:20.428Z,8.98
2018-01-31T07:55:30.982Z,7.57
2018-01-31T07:58:41.046Z,8.05
2018-01-31T08:01:51.719Z,9.30
2018-01-31T08:05:01.613Z,9.35
2018-01-31T08:08:11.386Z,11.00
2018-01-31T08:11:22.150Z,9.00
2018-01-31T08:14:31.975Z,13.18
2018-01-31T08:17:42.782Z,9.93
2018-01-31T08:20:53.085Z,8.90
2018-01-31T08:24:03.695Z,15.82
2018-01-31T08:27:14.506Z,28.65
2018-01-31T08:30:24.927Z,22.35
2018-01-31T08:33:34.959Z,26.17
2018-01-31T08:36:44.902Z,28.08
2018-01-31T08:39:56.422Z,19.25
2018-01-31T08:43:07.083Z,18.05
2018-01-31T08:46:16.917Z,21.65
2018-01-31T08:49:26.195Z,13.68
2018-01-31T08:52:37.190Z,16.17
2018-01-31T08:55:47.408Z,10.18
2018-01-31T08:58:57.964Z,7.45
2018-01-31T09:02:08.048Z,10.07
2018-01-31T09:05:18.696Z,8.40
2018-01-31T09:08:29.363Z,7.65
2018-01-31T09:11:39.699Z,10.05
2018-01-31T09:14:49.693Z,9.15
2018-01-31T09:18:00.304Z,7.03
2018-01-31T09:21:11.065Z,8.35
2018-01-31T09:24:21.256Z,8.50
2018-01-31T09:27:30.994Z,7.97
2018-01-31T09:30:40.679Z,9.07
2018-01-31T09:33:51.248Z,8.77
2018-01-31T09:37:01.506Z,7.85
2018-01-31T09:40:12.139Z,7.65
2018-01-31T09:43:23.092Z,9.25
2018-01-31T09:46:33.095Z,8.10
2018-01-31T09:49:43.642Z,7.80
2018-01-31T09:52:53.655Z,7.93
2018-01-31T09:56:03.358Z,9.13
2018-01-31T09:59:14.926Z,10.18
2018-01-31T10:02:25.051Z,9.88
2018-01-31T10:05:34.859Z,8.52
2018-01-31T10:08:44.768Z,9.38
2018-01-31T10:11:56.281Z,7.87
2018-01-31T10:15:06.180Z,9.68
2018-01-31T10:18:16.097Z,7.90
2018-01-31T10:21:26.433Z,7.62
2018-01-31T10:24:36.554Z,8.02
2018-01-31T10:27:47.248Z,6.80
2018-01-31T10:30:56.974Z,7.45
2018-01-31T10:34:06.786Z,8.02
2018-01-31T10:37:16.642Z,7.80
2018-01-31T10:40:26.556Z,8.52
2018-01-31T10:43:36.338Z,8.60
2018-01-31T10:46:46.883Z,8.50
2018-01-31T10:49:56.907Z,10.43
2018-01-31T10:53:07.415Z,6.85
2018-01-31T10:59:27.287Z,7.40
2018-01-31T11:02:37.703Z,11.48
2018-01-31T11:05:47.394Z,6.35
2018-01-31T11:08:57.155Z,7.50
2018-01-31T11:12:06.926Z,8.57
2018-01-31T11:15:17.574Z,6.97
2018-01-31T11:18:28.298Z,7.72
2018-01-31T11:21:38.803Z,7.05
2018-01-31T11:24:48.605Z,7.95
2018-01-31T11:27:58.422Z,7.10
2018-01-31T11:31:08.167Z,8.70
2018-01-31T11:34:18.717Z,8.15
2018-01-31T11:37:29.448Z,9.20
2018-01-31T11:40:39.450Z,9.07
2018-01-31T11:43:49.358Z,8.32
2018-01-31T11:46:59.934Z,7.43
2018-01-31T11:50:10.679Z,7.03
2018-01-31T11:53:20.683Z,7.75
2018-01-31T11:56:30.911Z,7.25
2018-01-31T11:59:41.459Z,8.00
2018-01-31T12:02:51.554Z,7.85
2018-01-31T12:06:01.756Z,6.35
2018-01-31T12:12:48.043Z,8.13
2018-01-31T12:16:18.248Z,7.72
2018-01-31T12:23:17.843Z,7.93
2018-01-31T12:26:53.606Z,8.57
2018-01-31T12:30:15.691Z,7.18
2018-01-31T12:33:37.424Z,7.82
2018-01-31T12:36:59.097Z,6.95
2018-01-31T12:40:08.187Z,7.07
2018-01-31T12:43:17.727Z,7.40
2018-01-31T12:46:38.888Z,10.90
2018-01-31T12:50:00.715Z,8.25
2018-01-31T12:53:22.541Z,7.80
2018-01-31T12:56:44.238Z,7.93
2018-01-31T13:00:05.953Z,7.78
2018-01-31T13:03:31.870Z,8.45
2018-01-31T13:06:53.633Z,8.35
2018-01-31T13:10:15.382Z,7.50
2018-01-31T13:17:13.751Z,8.10
2018-01-31T13:20:35.077Z,8.68
2018-01-31T13:23:57.967Z,7.75
2018-01-31T13:31:02.966Z,7.12
2018-01-31T13:38:06.589Z,7.55
2018-01-31T13:41:28.350Z,7.75
2018-01-31T13:44:49.824Z,8.05
2018-01-31T13:48:11.649Z,9.20
2018-01-31T13:51:33.478Z,8.48
2018-01-31T13:54:54.930Z,7.32
2018-01-31T13:58:16.560Z,7.20
2018-01-31T14:05:31.182Z,7.40
2018-01-31T14:08:53.020Z,7.03
2018-01-31T14:16:05.038Z,6.93
2018-01-31T14:19:26.727Z,7.95
2018-01-31T14:22:49.560Z,6.50
2018-01-31T14:26:11.363Z,8.05
2018-01-31T14:29:33.352Z,7.25
2018-01-31T14:33:00.525Z,7.45
2018-01-31T14:36:13.114Z,7.47
2018-01-31T14:39:22.040Z,7.60
2018-01-31T14:42:31.026Z,7.45
2018-01-31T14:45:39.911Z,7.53
2018-01-31T14:48:50.377Z,6.50
2018-01-31T14:51:59.079Z,9.43
2018-01-31T14:55:09.329Z,6.75
2018-01-31T14:58:18.237Z,7.65
2018-01-31T15:01:28.262Z,7.72
2018-01-31T15:04:38.048Z,7.15
2018-01-31T15:07:47.690Z,8.00
2018-01-31T15:10:57.548Z,7.50
2018-01-31T15:14:06.812Z,7.25
2018-01-31T15:17:19.608Z,8.20
2018-01-31T15:20:29.291Z,6.75
2018-01-31T15:23:38.259Z,7.70
2018-01-31T15:26:48.561Z,8.73
2018-01-31T15:29:57.389Z,8.70
2018-01-31T15:33:06.027Z,7.60
2018-01-31T15:36:15.131Z,8.38
2018-01-31T15:39:24.538Z,7.10
2018-01-31T15:42:34.070Z,7.43
2018-01-31T15:45:43.533Z,7.60
2018-01-31T15:48:52.221Z,8.32
2018-01-31T15:52:00.891Z,8.70
2018-01-31T15:55:09.912Z,8.00
2018-01-31T15:58:19.235Z,7.30
2018-01-31T16:01:28.390Z,7.03
2018-01-31T16:04:37.978Z,7.60
2018-01-31T16:07:47.621Z,7.22
2018-01-31T16:10:57.213Z,7.35
2018-01-31T16:14:05.982Z,7.07
2018-01-31T16:17:15.776Z,11.23
2018-01-31T16:20:37.872Z,8.35
2018-01-31T16:23:48.429Z,8.48
2018-01-31T16:26:58.317Z,9.45
2018-01-31T16:30:19.363Z,7.85
2018-01-31T16:33:29.041Z,7.37
2018-01-31T16:36:39.152Z,7.65
2018-01-31T16:39:49.212Z,7.47
2018-01-31T16:42:59.904Z,7.55
2018-01-31T16:46:12.497Z,6.00
2018-01-31T16:49:23.177Z,7.28
2018-01-31T16:52:33.668Z,7.18
2018-01-31T16:55:43.574Z,10.40
2018-01-31T16:58:53.708Z,7.75
2018-01-31T17:02:03.560Z,7.90
2018-01-31T17:05:20.895Z,9.38
2018-01-31T17:08:30.847Z,8.00
2018-01-31T17:11:41.420Z,9.45
2018-01-31T17:14:51.616Z,8.02
2018-01-31T17:18:01.350Z,8.40
2018-01-31T17:21:11.344Z,9.15
2018-01-31T17:24:22.092Z,9.48
2018-01-31T17:27:33.261Z,7.70
2018-01-31T17:30:43.736Z,9.25
2018-01-31T17:33:53.819Z,19.33
2018-01-31T17:37:04.878Z,9.20
2018-01-31T17:40:15.556Z,9.88
2018-01-31T17:43:25.911Z,16.33
2018-01-31T17:46:37.668Z,16.55
2018-01-31T17:49:47.480Z,9.43
2018-01-31T17:52:58.086Z,9.27
2018-01-31T17:56:08.301Z,15.90
2018-01-31T17:59:18.085Z,8.07
2018-01-31T18:02:28.084Z,9.82
2018-01-31T18:05:39.235Z,9.80
2018-01-31T18:08:51.791Z,8.55
2018-01-31T18:12:02.554Z,9.73
2018-01-31T18:15:12.635Z,9.52
2018-01-31T18:18:22.640Z,10.77
2018-01-31T18:21:33.451Z,9.10
2018-01-31T18:24:43.560Z,7.97
2018-01-31T18:27:54.177Z,9.00
2018-01-31T18:31:04.156Z,11.75
2018-01-31T18:34:14.432Z,9.43
2018-01-31T18:37:25.007Z,9.25
2018-01-31T18:40:35.024Z,10.05
2018-01-31T18:43:45.293Z,11.07
2018-01-31T18:46:56.083Z,10.35
2018-01-31T18:50:06.279Z,9.90
2018-01-31T18:53:16.154Z,7.85
2018-01-31T18:56:32.206Z,9.32
2018-01-31T18:59:42.485Z,9.82
2018-01-31T19:02:53.366Z,9.15
2018-01-31T19:06:03.613Z,11.68
2018-01-31T19:09:17.311Z,13.93
2018-01-31T19:12:27.612Z,11.57
2018-01-31T19:15:37.676Z,9.30
2018-01-31T19:18:47.865Z,9.98
2018-01-31T19:21:58.908Z,11.48
2018-01-31T19:25:09.360Z,10.63
2018-01-31T19:28:19.171Z,8.48
2018-01-31T19:31:29.124Z,9.57
2018-01-31T19:34:38.911Z,12.52
2018-01-31T19:37:48.831Z,8.50
2018-01-31T19:40:58.703Z,9.15
2018-01-31T19:44:08.678Z,10.10
2018-01-31T19:47:18.635Z,10.32
2018-01-31T19:50:28.465Z,9.55
2018-01-31T19:53:38.445Z,14.13
2018-01-31T19:56:48.228Z,10.73
2018-01-31T19:59:57.680Z,9.73
2018-01-31T20:03:09.430Z,7.82
2018-01-31T20:06:19.726Z,9.32
2018-01-31T20:09:29.980Z,10.43
2018-01-31T20:12:43.515Z,9.80
2018-01-31T20:15:53.583Z,15.18
2018-01-31T20:19:03.481Z,9.45
2018-01-31T20:22:14.180Z,8.65
2018-01-31T20:25:25.635Z,8.13
2018-01-31T20:28:35.922Z,11.18
2018-01-31T20:31:46.678Z,10.13
2018-01-31T20:35:02.630Z,9.68
2018-01-31T20:38:13.463Z,7.80
2018-01-31T20:41:24.253Z,8.57
2018-01-31T20:44:35.050Z,9.43
2018-01-31T20:47:44.828Z,8.75
2018-01-31T20:50:54.804Z,10.25
2018-01-31T20:54:04.958Z,8.88
2018-01-31T20:57:16.368Z,12.95
2018-01-31T21:00:26.468Z,8.10
2018-01-31T21:03:36.532Z,9.85
2018-01-31T21:06:46.566Z,8.40
2018-01-31T21:09:56.315Z,9.00
2018-01-31T21:13:06.885Z,9.45
2018-01-31T21:16:18.339Z,8.02
2018-01-31T21:19:28.241Z,8.90
2018-01-31T21:22:38.929Z,9.13
2018-01-31T21:25:48.901Z,8.90
2018-01-31T21:28:59.595Z,8.65
2018-01-31T21:32:09.621Z,9.82
2018-01-31T21:35:19.582Z,7.47
2018-01-31T21:38:29.382Z,10.70
2018-01-31T21:41:40.254Z,7.80
2018-01-31T21:44:51.421Z,8.13
2018-01-31T21:48:02.188Z,7.97
2018-01-31T21:51:13.145Z,7.78
2018-01-31T21:54:23.420Z,7.55
2018-01-31T21:57:47.293Z,9.32
2018-01-31T22:00:57.926Z,8.02
2018-01-31T22:04:07.913Z,7.47
2018-01-31T22:07:18.102Z,8.43
2018-01-31T22:10:28.745Z,7.25
2018-01-31T22:13:39.254Z,7.30
2018-01-31T22:16:48.461Z,6.75
2018-01-31T22:19:59.268Z,7.70
2018-01-31T22:23:09.845Z,6.80
2018-01-31T22:26:20.506Z,8.23
2018-01-31T22:29:31.286Z,7.60
2018-01-31T22:32:41.856Z,8.55
2018-01-31T22:35:51.716Z,6.65
2018-01-31T22:39:02.677Z,7.03
2018-01-31T22:42:12.765Z,6.80
2018-01-31T22:45:23.328Z,6.82
2018-01-31T22:48:33.523Z,7.43
2018-01-31T22:51:43.642Z,7.07
2018-01-31T22:54:53.952Z,6.57
2018-01-31T22:58:04.489Z,7.35
2018-01-31T23:01:14.334Z,6.68
2018-01-31T23:04:25.088Z,6.97
2018-01-31T23:07:35.602Z,7.93
2018-01-31T23:10:46.226Z,7.53
2018-01-31T23:14:01.593Z,7.28
2018-01-31T23:17:11.577Z,7.70
2018-01-31T23:20:21.238Z,7.70
2018-01-31T23:23:31.712Z,7.60
2018-01-31T23:26:41.429Z,7.10
2018-01-31T23:29:52.100Z,6.80
2018-01-31T23:33:01.837Z,6.70
2018-01-31T23:36:11.739Z,7.10
2018-01-31T23:39:22.538Z,7.55
2018-01-31T23:42:33.008Z,6.87
2018-01-31T23:45:42.939Z,7.32
2018-01-31T23:48:52.854Z,6.47
2018-01-31T23:52:03.538Z,7.40
2018-01-31T23:55:14.085Z,7.07
2018-01-31T23:58:24.441Z,6.72
